ラスベガス の空港の天気 - METARとTAF

マッカラン国際空港 ( KLAS / LAS ) - アメリカ ネバダ州ラスベガス
飛行場実況気象(Metar)
観測時間06/17 23:56 PDT (06/18 06:56 UTC)
風向・風速南 3m/s
視程10km以上
天気現象
なし
気温25.6℃
湿度12%
気圧1005.9hPa
METARKLAS 180656Z 18005KT 10SM CLR 26/M06 A2978 RMK AO2 SLP059 T02561061
過去の天気等 Google飛行場航空写真 Wunderground天気予報

過去48時間のMETAR

飛行場予報(TAF)
発表時間: 6/17 22:20 PDT (6/18 05:20 UTC)
予報対象時間: 17日23時 PDT ~ 19日5時 PDT
風向・風速南南西 5m/s
視程10km以上
なし
18日8時 PDT から
風向・風速不定 3m/s
視程10km以上
なし
18日12時 PDT から
風向・風速東 3m/s
視程10km以上
なし
18日15時 PDT から
風向・風速東南東 4m/s
視程10km以上
なし
18日16時 PDT から
風向・風速南南西 4m/s
視程10km以上
なし
KLAS 180520Z 1806/1912 21009KT P6SM SKC
FM181500 VRB05KT P6SM SKC
FM181900 08006KT P6SM SKC
FM182200 12007KT P6SM SKC
FM182300 20008KT P6SM SKC